Time;durP1;ratioP1;P1;durP2;ratioP2;P2;SDS_P1;SDS_P2;PMS_P1;PMS_P2;Temp;Humidity;BMP_temperature;BMP_pressure;BME280_temperature;BME280_humidity;BME280_pressure;Samples;Min_cycle;Max_cycle;Signal;HPM_P1;HPM_P2
2022/04/29 00:01:39;;;;;;;31.33;12.20;;;;;;;2.39;63.75;102510.11;1714404;83;21169;-87
2022/04/29 00:04:06;;;;;;;22.93;11.88;;;;;;;2.37;63.80;102514.27;1705975;83;21963;-88
2022/04/29 00:06:33;;;;;;;23.67;11.57;;;;;;;2.35;63.81;102506.34;1710623;83;21074;-88
2022/04/29 00:09:02;;;;;;;21.52;12.43;;;;;;;2.35;63.75;102510.23;1699319;83;21073;-87
2022/04/29 00:11:29;;;;;;;26.30;11.53;;;;;;;2.34;63.75;102501.91;1716863;83;21128;-88
2022/04/29 00:13:56;;;;;;;22.93;11.78;;;;;;;2.33;63.73;102508.80;1687726;83;21187;-87
2022/04/29 00:16:25;;;;;;;26.62;11.57;;;;;;;2.32;63.68;102506.06;1697768;83;22587;-89
2022/04/29 00:18:52;;;;;;;24.65;12.10;;;;;;;2.29;63.69;102504.13;1707705;83;21063;-88
2022/04/29 00:21:18;;;;;;;24.55;11.85;;;;;;;2.29;63.69;102497.98;1719210;83;21118;-88
2022/04/29 00:23:45;;;;;;;23.98;11.83;;;;;;;2.28;63.68;102501.38;1712312;81;21604;-89
2022/04/29 00:26:12;;;;;;;25.92;12.82;;;;;;;2.29;63.71;102509.68;1684459;83;21124;-88
2022/04/29 00:28:39;;;;;;;26.10;12.43;;;;;;;2.25;63.68;102502.41;1688980;83;21540;-88
2022/04/29 00:31:06;;;;;;;23.92;12.45;;;;;;;2.25;63.70;102503.70;1702498;83;21024;-88
2022/04/29 00:33:33;;;;;;;24.32;12.73;;;;;;;2.22;63.72;102500.86;1698767;83;21252;-88
2022/04/29 00:35:59;;;;;;;26.10;12.10;;;;;;;2.21;63.77;102500.33;1710511;83;21168;-89
2022/04/29 00:38:26;;;;;;;23.42;12.88;;;;;;;2.18;63.81;102497.08;1713564;83;21579;-89
2022/04/29 00:40:53;;;;;;;20.40;12.28;;;;;;;2.18;63.80;102496.15;1690724;83;21795;-89
2022/04/29 00:43:20;;;;;;;27.20;12.70;;;;;;;2.17;63.87;102496.95;1660061;84;21122;-89
2022/04/29 00:45:47;;;;;;;31.00;12.43;;;;;;;2.16;63.84;102502.90;1692849;83;21014;-89
2022/04/29 00:48:15;;;;;;;22.70;11.70;;;;;;;2.14;63.84;102498.50;1685530;83;21056;-88
2022/04/29 00:50:42;;;;;;;25.23;11.50;;;;;;;2.12;63.79;102496.16;1691203;83;21096;-88
2022/04/29 00:53:11;;;;;;;25.25;12.58;;;;;;;2.13;63.83;102493.17;1696343;83;21590;-89
2022/04/29 00:55:40;;;;;;;23.80;11.25;;;;;;;2.11;63.80;102490.43;1671307;83;21071;-87
2022/04/29 00:58:23;;;;;;;19.45;10.95;;;;;;;2.10;63.83;102491.22;1693554;82;21109;-89
2022/04/29 01:00:53;;;;;;;27.67;13.32;;;;;;;2.09;63.80;102488.48;1714752;83;25619;-88
2022/04/29 01:03:23;;;;;;;22.40;11.48;;;;;;;2.07;63.80;102482.25;1714761;83;21117;-88
2022/04/29 01:05:51;;;;;;;22.10;11.78;;;;;;;2.06;63.82;102481.31;1696067;83;21359;-90
2022/04/29 01:08:18;;;;;;;19.65;11.20;;;;;;;2.05;63.81;102482.11;1694368;82;21136;-89
2022/04/29 01:10:46;;;;;;;24.18;12.10;;;;;;;2.03;63.78;102474.58;1718736;83;21024;-88
2022/04/29 01:13:13;;;;;;;21.17;11.28;;;;;;;2.02;63.76;102480.53;1715078;82;21550;-89
2022/04/29 01:15:40;;;;;;;20.52;11.70;;;;;;;2.01;63.72;102477.80;1715810;83;21157;-88
2022/04/29 01:18:10;;;;;;;22.93;12.03;;;;;;;2.00;63.72;102475.99;1709360;82;22559;-88
2022/04/29 01:20:37;;;;;;;23.77;10.88;;;;;;;1.98;63.70;102477.16;1694830;83;21090;-88
2022/04/29 01:23:08;;;;;;;20.40;11.18;;;;;;;1.95;63.76;102472.98;1711320;83;21563;-88
2022/04/29 01:25:46;;;;;;;19.50;10.28;;;;;;;1.93;63.74;102472.88;1706671;83;21177;-89
2022/04/29 01:28:15;;;;;;;19.02;9.80;;;;;;;1.92;63.71;102471.44;1697098;82;21118;-88
2022/04/29 01:30:47;;;;;;;18.62;10.00;;;;;;;1.89;63.72;102470.76;1693111;83;22534;-88
2022/04/29 01:33:13;;;;;;;18.17;9.35;;;;;;;1.88;63.73;102463.77;1689173;83;21139;-89
2022/04/29 01:35:42;;;;;;;19.42;9.63;;;;;;;1.89;63.72;102462.06;1667733;83;21014;-89
2022/04/29 01:38:09;;;;;;;16.25;9.28;;;;;;;1.88;63.66;102462.46;1691570;83;21090;-88
2022/04/29 01:40:36;;;;;;;15.45;8.43;;;;;;;1.88;63.65;102461.56;1699092;83;21181;-89
2022/04/29 01:43:05;;;;;;;17.32;8.40;;;;;;;1.87;63.60;102463.22;1714360;83;21768;-87
2022/04/29 01:45:32;;;;;;;16.50;8.28;;;;;;;1.87;63.64;102461.02;1680890;83;21129;-87
2022/04/29 01:47:58;;;;;;;14.90;8.38;;;;;;;1.83;63.64;102457.64;1692238;83;21125;-89
2022/04/29 01:50:26;;;;;;;14.23;7.35;;;;;;;1.86;63.61;102459.19;1703673;83;21137;-87
2022/04/29 01:52:56;;;;;;;17.65;7.25;;;;;;;1.84;63.61;102455.19;1712825;83;21149;-87
2022/04/29 01:55:57;;;;;;;17.20;8.53;;;;;;;1.84;63.59;102453.89;1706489;83;22991;-88
2022/04/29 01:58:29;;;;;;;15.68;8.65;;;;;;;1.82;63.58;102451.91;1709444;83;21110;-88
2022/04/29 02:00:55;;;;;;;14.60;8.88;;;;;;;1.85;63.62;102453.48;1696218;81;21122;-88
2022/04/29 02:03:22;;;;;;;15.95;8.73;;;;;;;1.84;63.61;102450.36;1705062;83;21065;-88
2022/04/29 02:05:49;;;;;;;13.22;7.45;;;;;;;1.83;63.66;102447.26;1702366;83;21518;-89
2022/04/29 02:08:18;;;;;;;14.68;7.53;;;;;;;1.84;63.69;102453.89;1693741;82;22032;-89
2022/04/29 02:10:45;;;;;;;14.65;8.10;;;;;;;1.86;63.69;102453.99;1695208;83;21210;-90
2022/04/29 02:13:13;;;;;;;15.63;8.08;;;;;;;1.87;63.68;102456.73;1699433;82;21137;-91
2022/04/29 02:15:39;;;;;;;15.85;8.20;;;;;;;1.87;63.67;102460.63;1706025;82;21535;-90
2022/04/29 02:18:10;;;;;;;15.53;8.60;;;;;;;1.86;63.67;102454.93;1699660;83;21153;-89
2022/04/29 02:20:36;;;;;;;20.40;9.43;;;;;;;1.85;63.63;102445.70;1701743;83;21846;-89
2022/04/29 02:23:04;;;;;;;20.50;9.73;;;;;;;1.84;63.71;102446.46;1712527;81;21110;-89
2022/04/29 02:25:31;;;;;;;18.37;9.65;;;;;;;1.82;63.73;102446.72;1688945;83;21066;-89
2022/04/29 02:27:58;;;;;;;18.52;9.80;;;;;;;1.80;63.88;102448.27;1706061;82;21061;-89
2022/04/29 02:30:28;;;;;;;25.32;9.98;;;;;;;1.78;63.96;102449.43;1706607;83;21182;-89
2022/04/29 02:32:55;;;;;;;21.20;10.60;;;;;;;1.71;63.99;102437.62;1667803;83;21791;-90
2022/04/29 02:35:22;;;;;;;19.80;10.05;;;;;;;1.71;64.07;102441.91;1680265;84;21143;-90
2022/04/29 02:37:49;;;;;;;19.92;10.18;;;;;;;1.69;64.20;102437.88;1687372;84;21216;-90
2022/04/29 02:40:18;;;;;;;20.97;10.55;;;;;;;1.68;64.30;102437.34;1704796;83;21639;-89
2022/04/29 02:42:45;;;;;;;19.92;9.98;;;;;;;1.70;64.44;102439.68;1709938;83;21108;-94
2022/04/29 02:45:12;;;;;;;19.45;9.38;;;;;;;1.72;64.56;102436.83;1697437;83;22360;-91
2022/04/29 02:47:39;;;;;;;16.42;9.40;;;;;;;1.74;64.66;102433.07;1706404;82;21053;-90
2022/04/29 02:50:07;;;;;;;19.25;9.00;;;;;;;1.78;64.70;102432.55;1690575;83;21071;-89
2022/04/29 02:52:34;;;;;;;17.07;9.38;;;;;;;1.80;64.74;102434.89;1701272;83;21065;-89
2022/04/29 02:55:01;;;;;;;21.48;10.10;;;;;;;1.82;64.74;102435.97;1704420;83;21567;-89
2022/04/29 02:57:28;;;;;;;21.48;9.23;;;;;;;1.83;64.76;102431.68;1698818;82;22477;-89
2022/04/29 02:59:55;;;;;;;17.15;9.23;;;;;;;1.84;64.73;102430.52;1698140;82;21400;-89
2022/04/29 03:02:23;;;;;;;16.60;9.20;;;;;;;1.87;64.77;102429.86;1697489;82;21824;-89
2022/04/29 03:04:50;;;;;;;18.25;9.80;;;;;;;1.76;64.85;102408.15;1708182;82;21243;-89
2022/04/29 03:07:20;;;;;;;17.67;10.45;;;;;;;1.92;64.85;102429.89;1718727;83;21176;-89
2022/04/29 03:09:48;;;;;;;18.90;9.93;;;;;;;1.95;64.95;102426.23;1648192;85;22783;-89
2022/04/29 03:12:14;;;;;;;17.30;10.40;;;;;;;1.96;64.97;102425.47;1697636;83;21192;-89
2022/04/29 03:14:41;;;;;;;20.80;10.35;;;;;;;1.97;64.99;102420.81;1698584;82;21098;-89
2022/04/29 03:18:17;;;;;;;18.25;10.48;;;;;;;1.87;65.06;102400.91;1703427;82;21062;-89
2022/04/29 03:19:41;;;;;;;17.23;10.03;;;;;;;2.02;65.13;102423.79;1689692;83;21103;-90
2022/04/29 03:22:13;;;;;;;19.60;10.13;;;;;;;2.05;65.22;102421.47;1691933;82;21786;-90
2022/04/29 03:24:39;;;;;;;20.48;10.50;;;;;;;2.10;65.32;102417.19;1700157;82;21584;-89
2022/04/29 03:27:08;;;;;;;19.85;10.05;;;;;;;2.15;65.36;102426.66;1691526;82;21875;-89
2022/04/29 03:29:35;;;;;;;18.95;10.08;;;;;;;2.22;65.42;102420.32;1693126;81;21684;-89
2022/04/29 03:32:02;;;;;;;19.57;9.25;;;;;;;2.29;65.48;102421.34;1712883;82;21106;-89
2022/04/29 03:34:29;;;;;;;22.95;9.68;;;;;;;2.30;65.49;102414.97;1695950;82;21912;-89
2022/04/29 03:36:58;;;;;;;17.02;9.05;;;;;;;2.46;65.51;102420.16;1717732;81;21104;-89
2022/04/29 03:39:25;;;;;;;19.30;9.03;;;;;;;2.57;65.60;102418.48;1693880;82;21089;-89
2022/04/29 03:42:00;;;;;;;17.62;9.98;;;;;;;3.02;66.51;102417.52;1710943;82;21054;-89
2022/04/29 03:44:27;;;;;;;15.95;7.95;;;;;;;4.02;66.91;102420.28;1674580;81;22664;-88
2022/04/29 03:46:54;;;;;;;13.38;8.05;;;;;;;5.00;66.35;102407.28;1715249;81;21793;-88
2022/04/29 03:49:40;;;;;;;11.65;7.08;;;;;;;5.94;65.51;102404.89;1701878;81;21065;-88
2022/04/29 03:52:07;;;;;;;14.05;7.87;;;;;;;6.79;64.76;102404.17;1687271;83;21478;-89
2022/04/29 03:54:39;;;;;;;14.65;8.20;;;;;;;7.71;63.83;102397.03;1692047;83;21065;-88
2022/04/29 03:57:08;;;;;;;15.78;8.18;;;;;;;8.53;63.06;102391.58;1700452;83;21626;-87
2022/04/29 04:00:30;;;;;;;;;;;;;;;;;;;;;
2022/04/29 04:03:00;;;;;;;12.78;7.05;;;;;;;10.25;61.33;102389.39;1487378;92;21122;-89
2022/04/29 04:05:30;;;;;;;10.70;6.78;;;;;;;11.30;60.20;102385.45;1666533;83;21731;-91
2022/04/29 04:07:56;;;;;;;10.28;6.80;;;;;;;12.29;58.82;102383.41;1692938;82;21133;-92
2022/04/29 04:10:24;;;;;;;12.63;6.47;;;;;;;13.16;58.05;102383.58;1708289;81;21148;-93
2022/04/29 04:12:51;;;;;;;14.30;6.42;;;;;;;14.07;57.00;102393.29;1692923;82;21763;-85
2022/04/29 04:18:44;;;;;;;9.50;5.97;;;;;;;15.55;54.67;102402.30;1543134;90;21165;-91
2022/04/29 04:21:37;;;;;;;8.18;4.87;;;;;;;16.36;53.04;102393.17;1572251;89;21714;-90
2022/04/29 04:24:05;;;;;;;8.43;5.15;;;;;;;17.04;52.08;102392.30;1597670;87;21218;-91
2022/04/29 04:29:44;;;;;;;7.33;4.75;;;;;;;18.22;50.22;102386.05;1540262;91;21190;-89
2022/04/29 04:32:11;;;;;;;8.10;4.78;;;;;;;18.99;48.78;102387.02;1515320;92;21218;-91
2022/04/29 04:34:50;;;;;;;7.50;4.92;;;;;;;19.50;48.24;102385.56;1586703;86;21113;-89
2022/04/29 04:37:26;;;;;;;8.70;4.85;;;;;;;20.23;47.75;102384.29;1614499;85;21063;-85
2022/04/29 04:39:58;;;;;;;7.37;5.05;;;;;;;20.89;46.50;102384.06;1537736;89;22247;-86
2022/04/29 04:42:24;;;;;;;7.97;5.33;;;;;;;21.44;45.55;102388.95;1594052;87;21578;-86
2022/04/29 04:44:51;;;;;;;8.18;5.10;;;;;;;22.00;44.83;102383.41;1602254;87;21176;-87
2022/04/29 04:47:23;;;;;;;7.87;4.95;;;;;;;22.57;44.11;102391.20;1598817;87;21194;-87
2022/04/29 04:49:50;;;;;;;6.22;4.83;;;;;;;23.23;43.40;102379.13;1645286;85;21711;-87
2022/04/29 04:52:21;;;;;;;9.30;5.30;;;;;;;23.72;42.44;102380.78;1632136;85;21862;-91
2022/04/29 04:54:47;;;;;;;8.83;5.58;;;;;;;24.21;41.77;102384.64;1661936;83;21773;-86
2022/04/29 04:57:17;;;;;;;7.37;5.75;;;;;;;24.66;40.94;102378.08;1685914;82;21114;-88
2022/04/29 05:00:15;;;;;;;8.80;5.85;;;;;;;24.93;40.00;102379.20;1694597;83;21062;-86
2022/04/29 05:03:00;;;;;;;9.35;6.75;;;;;;;25.14;39.54;102380.79;1643903;86;21153;-87
2022/04/29 05:05:52;;;;;;;8.23;5.87;;;;;;;25.59;39.07;102383.93;1598852;86;21208;-86
2022/04/29 05:08:23;;;;;;;7.17;5.70;;;;;;;26.00;38.24;102377.62;1649722;86;22219;-87
2022/04/29 05:10:51;;;;;;;9.80;6.58;;;;;;;26.28;37.69;102379.94;1627075;85;21644;-88
2022/04/29 05:13:20;;;;;;;9.45;6.53;;;;;;;26.53;37.08;102377.27;1639514;85;21090;-87
2022/04/29 05:15:47;;;;;;;7.85;6.30;;;;;;;26.60;36.26;102382.60;1640898;85;21110;-87
2022/04/29 05:18:15;;;;;;;10.95;6.80;;;;;;;26.70;36.44;102384.25;1642752;85;21825;-88
2022/04/29 05:20:42;;;;;;;10.00;7.12;;;;;;;26.98;35.78;102389.19;1644421;85;21878;-87
2022/04/29 05:23:09;;;;;;;10.05;7.08;;;;;;;27.08;35.44;102384.92;1599171;86;21755;-87
2022/04/29 05:25:36;;;;;;;9.70;6.78;;;;;;;26.84;34.72;102387.62;1612825;84;21069;-87
2022/04/29 05:28:06;;;;;;;9.95;7.37;;;;;;;25.89;34.36;102385.81;1639308;84;21185;-87
2022/04/29 05:30:34;;;;;;;9.50;7.53;;;;;;;24.58;33.89;102388.91;1621962;86;21335;-87
2022/04/29 05:33:01;;;;;;;10.53;7.28;;;;;;;22.95;34.17;102394.34;1641834;85;21137;-88
2022/04/29 05:35:30;;;;;;;9.88;7.45;;;;;;;21.52;34.56;102390.80;1630001;85;21216;-86
2022/04/29 05:42:24;;;;;;;;;;;;;;;;;;;;;
2022/04/29 05:44:16;;;;;;;11.43;7.28;;;;;;;18.16;37.33;102400.61;1651674;82;21156;-87
2022/04/29 05:46:47;;;;;;;13.13;7.08;;;;;;;17.42;38.16;102403.88;1673849;83;21140;-87
2022/04/29 05:49:20;;;;;;;12.58;7.30;;;;;;;16.82;38.78;102405.08;1687891;81;21015;-87
2022/04/29 05:51:57;;;;;;;11.03;7.45;;;;;;;16.38;39.29;102406.52;1696398;82;21653;-86
2022/04/29 05:54:28;;;;;;;10.78;7.37;;;;;;;15.96;39.96;102416.40;1641777;84;21220;-86
2022/04/29 05:56:59;;;;;;;16.10;7.22;;;;;;;15.61;40.43;102412.20;1685681;83;21519;-87
2022/04/29 05:59:25;;;;;;;12.68;7.55;;;;;;;15.19;40.96;102401.62;1689989;82;21089;-86
2022/04/29 06:01:55;;;;;;;11.85;8.08;;;;;;;15.00;41.29;102423.05;1692556;82;21212;-86
2022/04/29 06:04:30;;;;;;;12.03;7.70;;;;;;;14.69;41.78;102430.86;1690768;82;21722;-86
2022/04/29 06:06:57;;;;;;;15.32;7.80;;;;;;;14.50;42.23;102426.63;1667404;83;27699;-87
2022/04/29 06:09:25;;;;;;;12.05;7.83;;;;;;;14.24;42.56;102426.13;1698232;82;22117;-86
2022/04/29 06:11:55;;;;;;;14.07;7.62;;;;;;;14.10;43.00;102430.48;1686843;82;21207;-87
2022/04/29 06:14:23;;;;;;;12.50;7.33;;;;;;;13.94;43.23;102434.72;1695232;82;21208;-88
2022/04/29 06:16:54;;;;;;;12.25;7.92;;;;;;;13.75;43.64;102433.11;1663252;82;21205;-87
2022/04/29 06:19:19;;;;;;;13.03;8.93;;;;;;;13.60;43.85;102434.30;1696055;82;21148;-86
2022/04/29 06:21:49;;;;;;;15.23;8.90;;;;;;;13.42;44.19;102437.56;1697826;82;22404;-86
2022/04/29 06:24:17;;;;;;;14.23;8.20;;;;;;;13.26;44.59;102435.09;1643745;83;21075;-86
2022/04/29 06:26:49;;;;;;;14.20;9.45;;;;;;;13.12;44.93;102437.14;1697860;82;21073;-86
2022/04/29 06:29:18;;;;;;;14.23;9.48;;;;;;;13.01;45.22;102436.72;1695279;82;21593;-86
2022/04/29 06:31:44;;;;;;;13.68;9.40;;;;;;;12.89;45.58;102435.76;1690397;82;21536;-85
2022/04/29 06:34:14;;;;;;;13.00;7.25;;;;;;;12.86;45.81;102442.66;1691530;82;21830;-86
2022/04/29 06:36:41;;;;;;;13.80;7.53;;;;;;;12.87;46.13;102440.51;1696811;81;21557;-86
2022/04/29 06:39:10;;;;;;;12.55;8.40;;;;;;;12.86;46.35;102439.62;1669430;83;21127;-86
2022/04/29 06:41:37;;;;;;;13.30;7.97;;;;;;;12.85;46.51;102443.08;1697096;81;21593;-86
2022/04/29 06:44:12;;;;;;;11.40;8.03;;;;;;;12.82;46.68;102448.26;1684884;81;21485;-86
2022/04/29 06:46:45;;;;;;;13.35;7.03;;;;;;;12.77;46.62;102448.47;1689343;82;21798;-86
2022/04/29 06:49:13;;;;;;;10.85;7.05;;;;;;;12.72;46.68;102454.86;1663366;82;21196;-86
2022/04/29 06:51:43;;;;;;;12.63;6.25;;;;;;;12.65;46.69;102458.09;1685372;82;21050;-85
2022/04/29 06:54:17;;;;;;;12.53;6.72;;;;;;;12.61;46.75;102457.45;1684072;81;21053;-86
2022/04/29 06:56:48;;;;;;;16.40;7.70;;;;;;;12.52;46.54;102457.04;1671028;81;21134;-86
2022/04/29 06:59:15;;;;;;;14.43;7.62;;;;;;;12.41;46.61;102459.23;1689792;81;22633;-86
2022/04/29 07:01:41;;;;;;;15.95;8.78;;;;;;;12.38;46.78;102458.65;1693292;82;21532;-86
2022/04/29 07:04:08;;;;;;;15.63;6.10;;;;;;;12.41;46.92;102458.80;1693661;81;21029;-86
2022/04/29 07:06:35;;;;;;;12.35;6.67;;;;;;;12.44;46.87;102462.91;1702321;82;21189;-86
2022/04/29 07:09:02;;;;;;;12.45;6.15;;;;;;;12.45;46.84;102463.80;1702340;82;21615;-86
2022/04/29 07:11:31;;;;;;;11.25;5.53;;;;;;;12.46;46.69;102462.95;1701171;82;21716;-86
2022/04/29 07:13:58;;;;;;;11.40;5.65;;;;;;;12.45;46.55;102467.34;1695036;83;21630;-85
2022/04/29 07:16:25;;;;;;;11.88;6.42;;;;;;;12.47;46.65;102471.80;1690781;82;21104;-86
2022/04/29 07:18:52;;;;;;;11.25;6.53;;;;;;;12.53;46.49;102467.67;1708170;81;21094;-86
2022/04/29 07:21:19;;;;;;;13.03;6.17;;;;;;;12.59;46.67;102465.73;1693891;83;21184;-85
2022/04/29 07:23:47;;;;;;;12.88;5.55;;;;;;;12.64;46.46;102463.77;1706531;81;22583;-86
2022/04/29 07:26:14;;;;;;;12.35;5.90;;;;;;;12.61;46.52;102448.20;1698003;83;21511;-86
2022/04/29 07:28:41;;;;;;;14.45;7.08;;;;;;;12.80;46.61;102465.75;1682032;83;21097;-85
2022/04/29 07:31:08;;;;;;;8.10;5.67;;;;;;;12.91;46.54;102470.19;1695436;81;21073;-86
2022/04/29 07:33:34;;;;;;;10.60;5.85;;;;;;;12.96;46.56;102468.23;1701137;81;21098;-86
2022/04/29 07:41:45;;;;;;;10.25;5.35;;;;;;;12.82;46.07;102464.11;1634327;85;21161;-85
2022/04/29 07:44:12;;;;;;;11.48;5.87;;;;;;;12.83;46.12;102463.26;1675980;81;21925;-87
2022/04/29 07:46:42;;;;;;;17.55;5.92;;;;;;;12.74;45.97;102476.96;1670604;83;21150;-87
2022/04/29 07:49:09;;;;;;;9.05;4.40;;;;;;;12.66;46.05;102472.20;1704475;81;21589;-87
2022/04/29 07:51:36;;;;;;;9.93;4.10;;;;;;;12.63;46.11;102467.27;1697879;82;21173;-86
2022/04/29 07:54:05;;;;;;;8.75;4.35;;;;;;;12.65;46.20;102462.06;1700062;82;21129;-87
2022/04/29 07:56:32;;;;;;;13.10;7.87;;;;;;;12.73;46.39;102465.03;1701575;81;21093;-86
2022/04/29 07:58:59;;;;;;;15.60;7.12;;;;;;;12.78;46.20;102463.47;1695904;81;21077;-87
2022/04/29 08:01:26;;;;;;;12.47;6.08;;;;;;;12.82;46.01;102469.40;1688378;83;21838;-86
2022/04/29 08:03:54;;;;;;;9.25;5.15;;;;;;;12.76;45.98;102467.39;1698070;81;21112;-86
2022/04/29 08:06:23;;;;;;;12.43;5.62;;;;;;;12.79;46.34;102457.36;1694211;82;21528;-86
2022/04/29 08:08:50;;;;;;;12.68;5.42;;;;;;;12.90;46.35;102460.05;1694408;81;21567;-87
2022/04/29 08:11:19;;;;;;;10.60;4.45;;;;;;;12.98;46.12;102452.02;1696261;81;21201;-86
2022/04/29 08:13:50;;;;;;;15.90;4.65;;;;;;;13.05;46.26;102447.91;1693293;83;21780;-87
2022/04/29 08:16:24;;;;;;;8.95;3.77;;;;;;;13.16;46.23;102453.65;1694940;81;21129;-86
2022/04/29 08:18:57;;;;;;;8.53;3.33;;;;;;;13.17;45.56;102452.36;1699555;82;21409;-86
2022/04/29 08:21:22;;;;;;;10.00;2.77;;;;;;;13.12;45.43;102449.05;1682293;83;21421;-86
2022/04/29 08:23:53;;;;;;;10.50;2.52;;;;;;;13.15;45.40;102451.40;1678867;83;21651;-86
2022/04/29 08:26:33;;;;;;;7.62;2.98;;;;;;;13.23;44.98;102457.00;1696871;82;22059;-87
2022/04/29 08:29:13;;;;;;;;;;;;;;;;;;;;;
2022/04/29 08:31:41;;;;;;;7.58;3.30;;;;;;;13.29;44.35;102450.67;1663190;82;21066;-86
2022/04/29 08:34:25;;;;;;;;;;;;;;;;;;;;;
2022/04/29 08:36:56;;;;;;;11.75;5.67;;;;;;;13.47;44.35;102444.34;1650233;83;21104;-86
2022/04/29 08:39:30;;;;;;;9.58;4.72;;;;;;;13.60;44.38;102450.17;1698693;81;22341;-86
2022/04/29 08:42:03;;;;;;;9.20;5.47;;;;;;;13.72;44.32;102449.78;1683469;81;21192;-87
2022/04/29 08:44:37;;;;;;;14.98;5.37;;;;;;;13.78;44.67;102445.15;1697936;81;21101;-87
2022/04/29 08:49:41;;;;;;;8.05;4.35;;;;;;;13.90;45.10;102451.33;1643624;83;21633;-86
2022/04/29 08:52:09;;;;;;;11.35;6.12;;;;;;;13.83;43.39;102449.28;1671854;83;22421;-85
2022/04/29 09:00:27;;;;;;;9.35;3.75;;;;;;;13.86;43.15;102433.09;1679209;82;21035;-86
2022/04/29 09:02:56;;;;;;;8.28;4.35;;;;;;;14.06;43.35;102439.56;1666720;83;21188;-86
2022/04/29 09:05:24;;;;;;;10.32;5.12;;;;;;;14.14;43.03;102438.12;1678325;83;21716;-85
2022/04/29 09:08:01;;;;;;;9.05;3.87;;;;;;;14.17;42.71;102434.24;1668789;84;21117;-86
2022/04/29 09:10:39;;;;;;;8.90;4.22;;;;;;;14.32;42.83;102432.19;1676619;83;21439;-87
2022/04/29 09:13:26;;;;;;;15.35;9.88;;;;;;;14.46;42.48;102435.76;1666931;83;22339;-86
2022/04/29 09:15:58;;;;;;;9.53;4.40;;;;;;;14.46;42.11;102434.44;1674948;83;21113;-86
2022/04/29 09:18:48;;;;;;;8.50;3.55;;;;;;;14.42;42.18;102426.80;1662792;83;21790;-86
2022/04/29 09:21:24;;;;;;;6.12;3.58;;;;;;;14.57;42.26;102433.10;1680845;83;21226;-85
2022/04/29 09:23:56;;;;;;;9.18;3.98;;;;;;;14.84;42.16;102421.22;1661468;84;21116;-86
2022/04/29 09:26:41;;;;;;;10.72;4.60;;;;;;;15.11;42.01;102423.91;1640794;85;21075;-86
2022/04/29 09:29:13;;;;;;;7.28;4.92;;;;;;;15.30;42.07;102400.64;1642824;85;21113;-87
2022/04/29 09:31:55;;;;;;;11.88;5.70;;;;;;;15.60;42.00;102416.63;1631333;84;21785;-86
2022/04/29 09:34:23;;;;;;;8.43;5.10;;;;;;;15.63;42.34;102414.05;1639951;84;21084;-86
2022/04/29 09:36:50;;;;;;;10.53;4.50;;;;;;;15.88;42.13;102406.88;1649092;84;21885;-87
2022/04/29 09:39:34;;;;;;;11.88;6.17;;;;;;;16.09;41.56;102410.59;1624905;84;21182;-87
2022/04/29 09:42:05;;;;;;;11.40;5.28;;;;;;;16.32;41.38;102410.79;1635658;84;21031;-86
2022/04/29 09:44:39;;;;;;;13.13;5.47;;;;;;;16.44;41.18;102413.31;1641532;84;22663;-87
2022/04/29 09:47:19;;;;;;;12.28;5.28;;;;;;;16.42;41.01;102406.66;1655091;84;21343;-86
2022/04/29 09:49:59;;;;;;;10.90;5.33;;;;;;;16.46;40.98;102404.55;1651639;84;21617;-86
2022/04/29 09:52:45;;;;;;;;;;;;;;;;;;;;;
2022/04/29 09:55:23;;;;;;;10.25;4.97;;;;;;;16.62;40.84;102422.23;1664729;83;21101;-87
2022/04/29 09:58:01;;;;;;;12.75;5.58;;;;;;;16.55;40.65;102410.95;1669746;83;21825;-86
2022/04/29 10:00:28;;;;;;;16.52;5.90;;;;;;;16.43;40.73;102413.75;1646523;84;22414;-86
2022/04/29 10:03:03;;;;;;;;;;;;;;;16.38;40.95;102409.17;1649952;83;21085;-86
2022/04/29 10:05:40;;;;;;;7.83;4.92;;;;;;;16.53;40.93;102412.23;1674184;83;20302;-86
2022/04/29 10:08:18;;;;;;;17.00;4.97;;;;;;;16.57;40.84;102415.88;1633032;84;21514;-87
2022/04/29 10:11:26;;;;;;;;;;;;;;;;;;;;;
2022/04/29 10:13:35;;;;;;;13.35;3.67;;;;;;;16.40;40.59;102416.75;1636079;84;21158;-86
2022/04/29 10:16:13;;;;;;;13.48;3.50;;;;;;;16.25;40.15;102420.77;1639677;85;21215;-85
2022/04/29 10:21:36;;;;;;;9.13;3.87;;;;;;;15.55;40.21;102431.50;1681143;82;21094;-87
2022/04/29 10:24:12;;;;;;;10.55;3.85;;;;;;;15.19;40.53;102433.87;1604826;88;21242;-87
2022/04/29 10:26:41;;;;;;;7.12;3.87;;;;;;;14.97;40.75;102441.99;1604892;88;21217;-86
2022/04/29 10:29:17;;;;;;;11.03;4.35;;;;;;;14.73;40.99;102439.43;1572505;88;21176;-87
2022/04/29 10:32:24;;;;;;;10.88;4.33;;;;;;;14.63;41.37;102442.59;1595892;88;21062;-87
2022/04/29 10:34:56;;;;;;;14.13;4.70;;;;;;;14.50;41.79;102440.31;1587590;88;21475;-86
2022/04/29 10:37:42;;;;;;;10.32;4.90;;;;;;;14.49;42.29;102434.13;1601202;87;21141;-87
2022/04/29 10:40:35;;;;;;;;;;;;;;;;;;;;;
2022/04/29 10:43:14;;;;;;;16.25;7.45;;;;;;;14.53;43.16;102438.68;1592047;88;21370;-86
2022/04/29 10:46:20;;;;;;;12.88;6.65;;;;;;;14.45;43.47;102440.16;1550999;91;21142;-86
2022/04/29 10:49:01;;;;;;;14.45;6.53;;;;;;;14.37;43.99;102450.89;1498683;93;21273;-86
2022/04/29 10:51:43;;;;;;;20.23;7.08;;;;;;;14.25;44.31;102453.09;1506747;92;21164;-87
2022/04/29 10:54:22;;;;;;;16.30;6.65;;;;;;;14.29;44.64;102455.01;1538597;86;21306;-86
2022/04/29 10:57:07;;;;;;;13.45;6.65;;;;;;;14.28;44.69;102437.30;1675397;82;21120;-87
2022/04/29 11:00:08;;;;;;;15.13;7.30;;;;;;;14.45;44.57;102446.79;1696622;82;21102;-87
2022/04/29 11:02:36;;;;;;;14.70;7.67;;;;;;;14.45;44.73;102454.73;1682460;81;21074;-87
2022/04/29 11:05:04;;;;;;;15.53;8.30;;;;;;;14.36;44.98;102449.09;1653351;82;22933;-88
2022/04/29 11:07:48;;;;;;;20.90;11.55;;;;;;;14.27;45.21;102449.66;1662288;84;21591;-87
2022/04/29 11:10:19;;;;;;;23.20;9.00;;;;;;;14.28;45.53;102453.19;1664126;84;21201;-87
2022/04/29 11:13:05;;;;;;;23.98;8.53;;;;;;;14.17;45.53;102451.45;1667801;83;21183;-85
2022/04/29 11:15:42;;;;;;;16.80;9.88;;;;;;;14.01;45.57;102461.91;1666626;83;21089;-86
2022/04/29 11:18:23;;;;;;;19.27;8.75;;;;;;;13.82;45.78;102460.30;1663650;83;21798;-86
2022/04/29 11:24:40;;;;;;;19.87;9.15;;;;;;;13.63;46.18;102465.29;1674226;84;21113;-86
2022/04/29 11:26:24;;;;;;;19.02;8.35;;;;;;;13.37;47.03;102469.53;1673286;84;21895;-86
2022/04/29 11:28:57;;;;;;;19.12;7.22;;;;;;;13.33;47.14;102479.08;1642444;84;21105;-87
2022/04/29 11:31:26;;;;;;;12.35;6.90;;;;;;;13.40;47.06;102467.91;1640059;84;21904;-86
2022/04/29 11:34:15;;;;;;;19.62;8.33;;;;;;;13.44;47.18;102469.34;1628436;83;21106;-86
2022/04/29 11:36:49;;;;;;;14.45;8.25;;;;;;;13.42;47.34;102486.50;1695146;81;21262;-86
2022/04/29 11:39:32;;;;;;;16.40;8.93;;;;;;;13.37;47.63;102474.39;1705594;81;21064;-86
2022/04/29 11:42:12;;;;;;;;;;;;;;;;;;;;;
2022/04/29 11:44:45;;;;;;;17.82;9.50;;;;;;;13.16;48.21;102473.48;1687219;82;21014;-87
2022/04/29 11:47:31;;;;;;;;;;;;;;;;;;;;;
2022/04/29 11:50:07;;;;;;;;;;;;;;;;;;;;;
2022/04/29 11:52:40;;;;;;;18.75;8.18;;;;;;;12.82;48.84;102479.97;1630864;84;21765;-86
2022/04/29 11:55:28;;;;;;;18.17;8.03;;;;;;;12.69;49.00;102482.48;1671159;82;21021;-87
2022/04/29 11:57:55;;;;;;;20.68;8.48;;;;;;;12.70;49.17;102472.81;1672923;82;21113;-85
2022/04/29 12:00:31;;;;;;;18.57;7.90;;;;;;;12.77;49.14;102470.93;1657990;83;21086;-86
2022/04/29 12:03:04;;;;;;;17.23;7.70;;;;;;;12.82;49.26;102480.86;1690873;81;21498;-86
2022/04/29 12:05:31;;;;;;;26.02;9.28;;;;;;;12.93;49.51;102474.73;1686748;82;21484;-86
2022/04/29 12:08:05;;;;;;;18.92;10.43;;;;;;;13.10;49.57;102493.02;1704770;82;21095;-86
2022/04/29 12:10:38;;;;;;;14.23;8.80;;;;;;;13.20;49.36;102476.73;1684187;82;21566;-86
2022/04/29 12:13:05;;;;;;;15.93;9.45;;;;;;;13.21;49.49;102467.94;1659974;83;21332;-85
2022/04/29 12:15:36;;;;;;;12.30;7.35;;;;;;;13.29;49.77;102472.22;1685983;82;21723;-85
2022/04/29 12:18:12;;;;;;;25.40;9.23;;;;;;;13.36;49.58;102471.67;1690565;82;21513;-86
2022/04/29 12:20:41;;;;;;;22.17;9.68;;;;;;;13.23;49.67;102466.26;1695750;81;21031;-85
2022/04/29 12:23:24;;;;;;;15.55;9.90;;;;;;;13.18;49.98;102456.83;1659405;83;22793;-86
2022/04/29 12:25:58;;;;;;;16.12;8.83;;;;;;;13.23;50.01;102462.29;1711509;81;21147;-86